createdAt,value
2022-12-05T00:00:28.330Z,0.23
2022-12-05T00:02:54.869Z,0.22
2022-12-05T00:05:21.418Z,0.25
2022-12-05T00:07:48.299Z,0.22
2022-12-05T00:10:14.889Z,0.18
2022-12-05T00:12:41.396Z,0.26
2022-12-05T00:15:12.343Z,0.22
2022-12-05T00:17:40.727Z,0.19
2022-12-05T00:20:07.705Z,0.15
2022-12-05T00:22:38.262Z,0.16
2022-12-05T00:25:08.394Z,0.19
2022-12-05T00:27:34.747Z,0.23
2022-12-05T00:30:01.272Z,0.24
2022-12-05T00:32:30.857Z,0.19
2022-12-05T00:34:57.333Z,0.19
2022-12-05T00:37:24.071Z,0.23
2022-12-05T00:39:50.635Z,0.24
2022-12-05T00:42:17.096Z,0.28
2022-12-05T00:44:43.544Z,0.22
2022-12-05T00:47:10.033Z,0.28
2022-12-05T00:49:36.498Z,0.23
2022-12-05T00:52:02.954Z,0.23
2022-12-05T00:54:29.422Z,0.32
2022-12-05T00:56:58.687Z,0.22
2022-12-05T00:59:25.184Z,0.29
2022-12-05T01:01:51.845Z,0.30
2022-12-05T01:04:23.126Z,0.31
2022-12-05T01:06:49.858Z,0.25
2022-12-05T01:09:17.951Z,0.28
2022-12-05T01:11:44.498Z,0.33
2022-12-05T01:14:11.761Z,0.29
2022-12-05T01:16:39.112Z,0.27
2022-12-05T01:19:11.898Z,0.33
2022-12-05T01:21:38.373Z,0.42
2022-12-05T01:24:05.149Z,0.33
2022-12-05T01:26:31.604Z,0.28
2022-12-05T01:28:58.172Z,0.37
2022-12-05T01:31:26.870Z,0.34
2022-12-05T01:33:54.199Z,0.41
2022-12-05T01:36:21.254Z,0.31
2022-12-05T01:38:47.896Z,0.35
2022-12-05T01:41:16.783Z,0.44
2022-12-05T01:44:02.757Z,0.39
2022-12-05T01:46:33.888Z,0.48
2022-12-05T01:49:23.361Z,0.40
2022-12-05T01:51:51.859Z,0.35
2022-12-05T01:54:18.644Z,0.31
2022-12-05T01:56:48.195Z,0.31
2022-12-05T01:59:14.652Z,0.38
2022-12-05T02:01:41.231Z,0.37
2022-12-05T02:04:07.769Z,0.32
2022-12-05T02:06:34.260Z,0.31
2022-12-05T02:09:00.725Z,0.33
2022-12-05T02:11:28.267Z,0.30
2022-12-05T02:14:13.565Z,0.29
2022-12-05T02:17:11.232Z,0.25
2022-12-05T02:19:59.845Z,0.26
2022-12-05T02:22:38.000Z,0.30
2022-12-05T02:25:27.000Z,0.34
2022-12-05T02:28:15.192Z,0.37
2022-12-05T02:30:43.432Z,0.42
2022-12-05T02:33:34.621Z,0.34
2022-12-05T02:36:10.078Z,0.40
2022-12-05T02:38:51.634Z,0.35
2022-12-05T02:41:39.899Z,0.39
2022-12-05T02:44:24.877Z,0.36
2022-12-05T02:46:52.312Z,0.37
2022-12-05T02:49:23.729Z,0.48
2022-12-05T02:51:52.804Z,0.39
2022-12-05T02:54:20.952Z,0.49
2022-12-05T02:56:47.428Z,0.43
2022-12-05T02:59:18.502Z,0.42
2022-12-05T03:01:49.696Z,0.46
2022-12-05T03:04:16.622Z,0.42
2022-12-05T03:06:44.229Z,0.41
2022-12-05T03:09:16.377Z,0.50
2022-12-05T03:11:49.585Z,0.46
2022-12-05T03:14:21.690Z,0.51
2022-12-05T03:16:52.795Z,0.46
2022-12-05T03:19:30.174Z,0.47
2022-12-05T03:22:02.300Z,0.41
2022-12-05T03:24:28.853Z,0.53
2022-12-05T03:27:12.025Z,0.48
2022-12-05T03:29:55.941Z,0.41
2022-12-05T03:33:03.712Z,0.38
2022-12-05T03:35:57.031Z,0.36
2022-12-05T03:38:42.310Z,0.37
2022-12-05T03:41:19.886Z,0.42
2022-12-05T03:44:01.304Z,0.44
2022-12-05T03:46:37.804Z,0.42
2022-12-05T03:49:17.152Z,0.45
2022-12-05T03:51:58.723Z,0.48
2022-12-05T03:54:27.432Z,0.42
2022-12-05T03:57:24.520Z,0.44
2022-12-05T04:00:04.925Z,0.44
2022-12-05T04:02:51.060Z,0.49
2022-12-05T04:05:26.866Z,0.38
2022-12-05T04:07:56.927Z,0.43
2022-12-05T04:10:24.180Z,0.40
2022-12-05T04:12:51.928Z,0.44
2022-12-05T04:15:24.795Z,0.49
2022-12-05T04:17:56.172Z,0.48
2022-12-05T04:20:53.585Z,0.47
2022-12-05T04:23:20.053Z,0.45
2022-12-05T04:26:01.891Z,0.43
2022-12-05T04:28:31.467Z,0.40
2022-12-05T04:31:16.087Z,0.42
2022-12-05T04:33:47.711Z,0.50
2022-12-05T04:36:16.523Z,0.49
2022-12-05T04:38:50.962Z,0.44
2022-12-05T04:41:26.037Z,0.37
2022-12-05T04:43:52.525Z,0.49
2022-12-05T04:46:19.214Z,0.40
2022-12-05T04:48:49.508Z,0.44
2022-12-05T04:51:17.257Z,0.42
2022-12-05T04:53:43.764Z,0.37
2022-12-05T04:56:10.221Z,0.45
2022-12-05T04:58:36.733Z,0.45
2022-12-05T05:01:19.862Z,0.48
2022-12-05T05:04:01.214Z,0.41
2022-12-05T05:06:28.415Z,0.45
2022-12-05T05:08:56.379Z,0.42
2022-12-05T05:11:24.552Z,0.48
2022-12-05T05:13:51.168Z,0.47
2022-12-05T05:16:22.292Z,0.45
2022-12-05T05:18:49.241Z,0.45
2022-12-05T05:21:30.002Z,0.48
2022-12-05T05:23:56.482Z,0.52
2022-12-05T05:26:23.180Z,0.43
2022-12-05T05:28:49.808Z,0.44
2022-12-05T05:31:16.497Z,0.38
2022-12-05T05:33:43.020Z,0.47
2022-12-05T05:36:11.430Z,0.47
2022-12-05T05:38:38.553Z,0.39
2022-12-05T05:41:05.418Z,0.39
2022-12-05T05:43:31.975Z,0.39
2022-12-05T05:45:58.477Z,0.37
2022-12-05T05:48:25.204Z,0.37
2022-12-05T05:50:51.709Z,0.53
2022-12-05T05:53:18.203Z,0.46
2022-12-05T05:55:44.712Z,0.42
2022-12-05T05:58:11.174Z,0.48
2022-12-05T06:00:37.748Z,0.46
2022-12-05T06:03:04.399Z,0.48
2022-12-05T06:05:31.626Z,0.37
2022-12-05T06:07:58.168Z,0.47
2022-12-05T06:10:24.694Z,0.43
2022-12-05T06:12:51.185Z,0.32
2022-12-05T06:15:17.736Z,0.40
2022-12-05T06:17:44.193Z,0.40
2022-12-05T06:20:11.029Z,0.44
2022-12-05T06:22:37.529Z,0.39
2022-12-05T06:25:04.213Z,0.36
2022-12-05T06:27:32.715Z,0.35
2022-12-05T06:29:59.658Z,0.30
2022-12-05T06:32:28.142Z,0.34
2022-12-05T06:34:54.621Z,0.30
2022-12-05T06:37:21.078Z,0.40
2022-12-05T06:39:47.544Z,0.49
2022-12-05T06:42:14.221Z,0.50
2022-12-05T06:44:40.683Z,0.58
2022-12-05T06:47:07.205Z,0.48
2022-12-05T06:49:37.674Z,0.40
2022-12-05T06:52:04.500Z,0.33
2022-12-05T06:54:30.964Z,0.37
2022-12-05T06:56:57.422Z,0.31
2022-12-05T06:59:23.904Z,0.27
2022-12-05T07:01:50.641Z,0.23
2022-12-05T07:04:24.183Z,0.26
2022-12-05T07:06:51.455Z,0.26
2022-12-05T07:09:19.140Z,0.26
2022-12-05T07:11:49.415Z,0.33
2022-12-05T07:14:38.902Z,0.27
2022-12-05T07:17:02.453Z,0.24
2022-12-05T07:19:28.981Z,0.25
2022-12-05T07:21:55.471Z,0.29
2022-12-05T07:24:21.918Z,0.25
2022-12-05T07:26:48.369Z,0.19
2022-12-05T07:29:14.839Z,0.18
2022-12-05T07:31:41.362Z,0.17
2022-12-05T07:34:07.858Z,0.18
2022-12-05T07:36:34.467Z,0.22
2022-12-05T07:39:01.047Z,0.21
2022-12-05T07:41:28.983Z,0.12
2022-12-05T07:43:56.514Z,0.13
2022-12-05T07:46:23.726Z,0.15
2022-12-05T07:48:50.525Z,0.15
2022-12-05T07:51:17.146Z,0.15
2022-12-05T07:53:44.318Z,0.09
2022-12-05T07:56:16.945Z,0.08
2022-12-05T07:58:44.488Z,0.12
2022-12-05T08:01:23.632Z,0.18
2022-12-05T08:03:50.335Z,0.17
2022-12-05T08:06:21.724Z,0.16
2022-12-05T08:08:51.243Z,0.20
2022-12-05T08:11:19.949Z,0.22
2022-12-05T08:13:46.669Z,0.19
2022-12-05T08:16:14.794Z,0.37
2022-12-05T08:18:41.733Z,0.27
2022-12-05T08:21:10.469Z,0.22
2022-12-05T08:23:37.623Z,0.21
2022-12-05T08:26:08.628Z,0.41
2022-12-05T08:28:35.106Z,0.23
2022-12-05T08:31:13.113Z,0.19
2022-12-05T08:33:39.656Z,0.26
2022-12-05T08:36:08.224Z,0.30
2022-12-05T08:38:34.859Z,0.38
2022-12-05T08:41:02.339Z,0.43
2022-12-05T08:43:29.829Z,0.45
2022-12-05T08:45:56.312Z,0.34
2022-12-05T08:48:28.826Z,0.45
2022-12-05T08:50:55.851Z,0.39
2022-12-05T08:53:22.338Z,0.33
2022-12-05T08:55:48.823Z,0.34
2022-12-05T08:58:15.277Z,0.43
2022-12-05T09:00:41.750Z,0.54
2022-12-05T09:03:09.954Z,0.57
2022-12-05T09:05:36.499Z,0.58
2022-12-05T09:08:03.150Z,0.46
2022-12-05T09:10:29.935Z,0.42
2022-12-05T09:12:56.394Z,0.34
2022-12-05T09:15:22.947Z,0.48
2022-12-05T09:17:49.458Z,0.46
2022-12-05T09:20:15.937Z,0.54
2022-12-05T09:22:42.785Z,0.49
2022-12-05T09:25:09.563Z,0.48
2022-12-05T09:27:36.099Z,0.57
2022-12-05T09:30:02.567Z,0.50
2022-12-05T09:32:29.069Z,0.52
2022-12-05T09:34:58.624Z,0.54
2022-12-05T09:37:40.613Z,0.55
2022-12-05T09:40:07.968Z,0.49
2022-12-05T09:42:43.897Z,0.48
2022-12-05T09:45:23.426Z,0.41
2022-12-05T09:47:59.005Z,0.42
2022-12-05T09:50:43.920Z,0.47
2022-12-05T09:53:21.176Z,0.54
2022-12-05T09:55:53.160Z,0.45
2022-12-05T09:58:32.745Z,0.36
2022-12-05T10:01:02.236Z,0.44
2022-12-05T10:03:43.048Z,0.50
2022-12-05T10:06:12.163Z,0.55
2022-12-05T10:08:50.856Z,0.55
2022-12-05T10:11:39.039Z,0.44
2022-12-05T10:14:26.830Z,0.51
2022-12-05T10:16:55.482Z,0.52
2022-12-05T10:19:27.905Z,0.49
2022-12-05T10:22:09.913Z,0.42
2022-12-05T10:24:43.076Z,0.53
2022-12-05T10:27:14.840Z,0.63
2022-12-05T10:29:45.386Z,0.72
2022-12-05T10:32:24.385Z,0.73
2022-12-05T10:34:50.929Z,0.88
2022-12-05T10:37:21.880Z,0.89
2022-12-05T10:39:49.066Z,1.03
2022-12-05T10:42:17.553Z,1.03
2022-12-05T10:44:44.089Z,1.11
2022-12-05T10:47:10.601Z,1.06
2022-12-05T10:49:37.111Z,1.03
2022-12-05T10:52:04.070Z,1.10
2022-12-05T10:54:31.555Z,1.07
2022-12-05T10:56:58.022Z,1.09
2022-12-05T10:59:26.204Z,1.14
2022-12-05T11:01:54.963Z,1.15
2022-12-05T11:04:43.976Z,1.15
2022-12-05T11:07:23.687Z,1.12
2022-12-05T11:09:50.149Z,1.16
2022-12-05T11:12:25.981Z,1.20
2022-12-05T11:15:01.275Z,1.20
2022-12-05T11:17:33.362Z,1.24
2022-12-05T11:19:59.903Z,1.25
2022-12-05T11:22:34.197Z,1.29
2022-12-05T11:25:01.042Z,1.20
2022-12-05T11:27:31.859Z,1.11
2022-12-05T11:30:11.957Z,1.17
2022-12-05T11:32:38.642Z,1.30
2022-12-05T11:35:12.635Z,1.46
2022-12-05T11:38:00.028Z,1.56
2022-12-05T11:40:48.270Z,1.68
2022-12-05T11:43:38.145Z,1.84
2022-12-05T11:46:04.671Z,2.02
2022-12-05T11:48:49.235Z,2.16
2022-12-05T11:51:24.916Z,2.17
2022-12-05T11:54:12.615Z,2.17
2022-12-05T11:56:44.645Z,2.15
2022-12-05T11:59:38.575Z,2.10
2022-12-05T12:02:15.358Z,2.12
2022-12-05T12:04:51.217Z,2.05
2022-12-05T12:07:20.563Z,2.08
2022-12-05T12:10:17.893Z,2.12
2022-12-05T12:12:59.586Z,2.02
2022-12-05T12:15:29.996Z,1.98
2022-12-05T12:18:17.716Z,1.86
2022-12-05T12:21:32.696Z,1.76
2022-12-05T12:24:07.437Z,1.78
2022-12-05T12:26:53.473Z,1.73
2022-12-05T12:29:26.990Z,1.83
2022-12-05T12:32:29.416Z,1.68
2022-12-05T12:35:17.156Z,1.61
2022-12-05T12:37:52.596Z,1.59
2022-12-05T12:40:34.870Z,1.67
2022-12-05T12:43:52.673Z,1.68
2022-12-05T12:46:18.665Z,1.71
2022-12-05T12:49:10.437Z,1.74
2022-12-05T12:51:36.926Z,1.77
2022-12-05T12:54:06.207Z,1.85
2022-12-05T12:56:57.262Z,1.93
2022-12-05T13:00:01.378Z,1.81
2022-12-05T13:02:37.726Z,1.79
2022-12-05T13:05:16.081Z,1.73
2022-12-05T13:07:48.176Z,1.58
2022-12-05T13:10:44.436Z,1.67
2022-12-05T13:13:22.223Z,1.52
2022-12-05T13:15:56.157Z,1.57
2022-12-05T13:18:23.882Z,1.58
2022-12-05T13:20:54.946Z,1.56
2022-12-05T13:23:23.965Z,1.55
2022-12-05T13:25:50.968Z,1.62
2022-12-05T13:28:31.543Z,1.72
2022-12-05T13:30:58.539Z,1.68
2022-12-05T13:33:26.107Z,1.61
2022-12-05T13:36:35.130Z,1.60
2022-12-05T13:39:22.356Z,1.54
2022-12-05T13:42:14.640Z,1.36
2022-12-05T13:45:05.405Z,1.41
2022-12-05T13:47:40.761Z,1.47
2022-12-05T13:50:07.256Z,1.32
2022-12-05T13:53:01.519Z,1.23
2022-12-05T13:55:36.784Z,1.13
2022-12-05T13:58:18.708Z,1.10
2022-12-05T14:00:45.340Z,0.96
2022-12-05T14:03:24.084Z,1.02
2022-12-05T14:05:53.774Z,1.06
2022-12-05T14:08:32.406Z,0.99
2022-12-05T14:10:58.722Z,0.96
2022-12-05T14:13:25.410Z,0.91
2022-12-05T14:15:53.724Z,0.93
2022-12-05T14:18:28.571Z,1.04
2022-12-05T14:21:10.296Z,0.91
2022-12-05T14:23:52.494Z,0.83
2022-12-05T14:26:22.418Z,0.82
2022-12-05T14:29:16.432Z,0.84
2022-12-05T14:31:45.787Z,0.94
2022-12-05T14:34:48.586Z,0.92
2022-12-05T14:37:14.888Z,0.80
2022-12-05T14:39:48.978Z,0.82
2022-12-05T14:42:26.445Z,0.76
2022-12-05T14:44:55.507Z,0.83
2022-12-05T14:47:24.384Z,0.77
2022-12-05T14:50:23.265Z,0.82
2022-12-05T14:53:15.343Z,0.93
2022-12-05T14:55:44.990Z,0.78
2022-12-05T14:58:48.779Z,0.76
2022-12-05T15:01:21.317Z,0.75
2022-12-05T15:04:20.187Z,0.76
2022-12-05T15:06:53.711Z,0.57
2022-12-05T15:09:37.418Z,0.52
2022-12-05T15:12:09.526Z,0.65
2022-12-05T15:14:43.541Z,0.55
2022-12-05T15:17:13.072Z,0.52
2022-12-05T15:19:45.616Z,0.54
2022-12-05T15:22:13.316Z,0.54
2022-12-05T15:24:39.841Z,0.59
2022-12-05T15:27:06.894Z,0.55
2022-12-05T15:29:33.785Z,0.49
2022-12-05T15:32:07.686Z,0.50
2022-12-05T15:34:44.012Z,0.48
2022-12-05T15:38:02.846Z,0.54
2022-12-05T15:40:37.203Z,0.54
2022-12-05T15:43:25.883Z,0.49
2022-12-05T15:45:52.980Z,0.80
2022-12-05T15:48:22.973Z,0.61
2022-12-05T15:50:50.706Z,0.67
2022-12-05T15:53:17.085Z,0.57
2022-12-05T15:55:52.800Z,0.46
2022-12-05T15:58:31.495Z,0.58
2022-12-05T16:01:07.382Z,0.50
2022-12-05T16:03:36.539Z,0.50
2022-12-05T16:06:05.578Z,0.50
2022-12-05T16:08:40.684Z,0.64
2022-12-05T16:11:10.760Z,0.54
2022-12-05T16:13:42.133Z,0.46
2022-12-05T16:16:08.687Z,0.40
2022-12-05T16:18:35.451Z,0.58
2022-12-05T16:21:01.922Z,0.55
2022-12-05T16:23:32.702Z,0.50
2022-12-05T16:26:21.066Z,0.46
2022-12-05T16:28:59.748Z,0.41
2022-12-05T16:31:26.642Z,0.55
2022-12-05T16:34:06.749Z,0.55
2022-12-05T16:36:33.786Z,0.52
2022-12-05T16:39:07.301Z,0.44
2022-12-05T16:41:37.919Z,0.44
2022-12-05T16:44:09.448Z,0.52
2022-12-05T16:46:42.439Z,0.51
2022-12-05T16:49:18.056Z,0.55
2022-12-05T16:51:45.734Z,0.67
2022-12-05T16:54:12.205Z,0.81
2022-12-05T16:56:39.885Z,0.77
2022-12-05T16:59:06.990Z,0.83
2022-12-05T17:01:38.660Z,0.73
2022-12-05T17:04:05.694Z,0.69
2022-12-05T17:06:32.198Z,0.66
2022-12-05T17:08:59.176Z,0.58
2022-12-05T17:11:30.677Z,0.63
2022-12-05T17:13:57.199Z,0.52
2022-12-05T17:16:23.942Z,0.55
2022-12-05T17:18:50.534Z,0.48
2022-12-05T17:21:18.243Z,0.62
2022-12-05T17:23:47.855Z,0.45
2022-12-05T17:26:15.074Z,0.48
2022-12-05T17:28:41.763Z,0.42
2022-12-05T17:31:09.838Z,0.41
2022-12-05T17:33:36.409Z,0.42
2022-12-05T17:36:02.918Z,0.45
2022-12-05T17:38:29.558Z,0.38
2022-12-05T17:40:56.050Z,0.50
2022-12-05T17:43:25.306Z,0.43
2022-12-05T17:45:52.613Z,0.45
2022-12-05T17:48:19.094Z,0.33
2022-12-05T17:50:46.307Z,0.38
2022-12-05T17:53:13.689Z,0.42
2022-12-05T17:55:40.202Z,0.45
2022-12-05T17:58:06.751Z,0.39
2022-12-05T18:00:33.784Z,0.42
2022-12-05T18:03:00.457Z,0.42
2022-12-05T18:05:26.979Z,0.37
2022-12-05T18:07:53.542Z,0.40
2022-12-05T18:10:21.992Z,0.40
2022-12-05T18:12:48.505Z,0.37
2022-12-05T18:15:15.142Z,0.40
2022-12-05T18:17:41.687Z,0.46
2022-12-05T18:20:09.953Z,0.58
2022-12-05T18:22:36.429Z,0.52
2022-12-05T18:25:03.689Z,0.44
2022-12-05T18:27:30.285Z,0.42
2022-12-05T18:29:56.753Z,0.52
2022-12-05T18:32:23.967Z,0.51
2022-12-05T18:34:50.438Z,0.39
2022-12-05T18:37:18.231Z,0.41
2022-12-05T18:39:45.085Z,0.50
2022-12-05T18:42:14.956Z,0.51
2022-12-05T18:44:42.004Z,0.44
2022-12-05T18:47:08.502Z,0.49
2022-12-05T18:49:34.980Z,0.57
2022-12-05T18:52:01.449Z,0.36
2022-12-05T18:54:27.913Z,0.27
2022-12-05T18:56:54.474Z,0.27
2022-12-05T18:59:21.656Z,0.23
2022-12-05T19:01:49.254Z,0.21
2022-12-05T19:04:17.498Z,0.17
2022-12-05T19:06:52.417Z,0.19
2022-12-05T19:09:20.295Z,0.22
2022-12-05T19:11:49.272Z,0.25
2022-12-05T19:14:16.971Z,0.20
2022-12-05T19:16:43.479Z,0.29
2022-12-05T19:19:12.168Z,0.28
2022-12-05T19:21:38.635Z,0.31
2022-12-05T19:24:06.142Z,0.23
2022-12-05T19:26:32.773Z,0.29
2022-12-05T19:28:59.735Z,0.34
2022-12-05T19:31:27.373Z,0.29
2022-12-05T19:33:55.626Z,0.28
2022-12-05T19:36:23.920Z,0.21
2022-12-05T19:38:51.498Z,0.26
2022-12-05T19:41:20.176Z,0.25
2022-12-05T19:43:46.733Z,0.36
2022-12-05T19:46:19.013Z,0.31
2022-12-05T19:48:45.986Z,0.25
2022-12-05T19:51:12.501Z,0.25
2022-12-05T19:53:41.440Z,0.26
2022-12-05T19:56:27.603Z,0.28
2022-12-05T19:58:58.231Z,0.34
2022-12-05T20:01:29.640Z,0.28
2022-12-05T20:03:57.856Z,0.25
2022-12-05T20:06:24.424Z,0.25
2022-12-05T20:08:52.420Z,0.27
2022-12-05T20:11:26.698Z,0.36
2022-12-05T20:13:53.965Z,0.39
2022-12-05T20:16:21.599Z,0.36
2022-12-05T20:18:48.692Z,0.40
2022-12-05T20:21:17.197Z,0.44
2022-12-05T20:23:43.805Z,0.36
2022-12-05T20:26:24.254Z,0.27
2022-12-05T20:28:51.054Z,0.38
2022-12-05T20:31:22.314Z,0.33
2022-12-05T20:33:49.785Z,0.40
2022-12-05T20:36:18.154Z,0.24
2022-12-05T20:38:45.551Z,0.32
2022-12-05T20:41:15.422Z,0.35
2022-12-05T20:43:42.678Z,0.24
2022-12-05T20:46:17.681Z,0.22
2022-12-05T20:48:44.878Z,0.14
2022-12-05T20:51:16.758Z,0.12
2022-12-05T20:53:45.836Z,0.27
2022-12-05T20:56:23.062Z,0.24
2022-12-05T20:58:50.621Z,0.29
2022-12-05T21:01:18.069Z,0.34
2022-12-05T21:03:45.662Z,0.26
2022-12-05T21:06:14.024Z,0.16
2022-12-05T21:08:40.617Z,0.20
2022-12-05T21:11:07.415Z,0.14
2022-12-05T21:13:34.025Z,0.15
2022-12-05T21:16:18.329Z,0.21
2022-12-05T21:18:45.357Z,0.23
2022-12-05T21:21:14.750Z,0.20
2022-12-05T21:23:42.142Z,0.30
2022-12-05T21:26:11.359Z,0.29
2022-12-05T21:28:37.837Z,0.23
2022-12-05T21:31:08.876Z,0.28
2022-12-05T21:33:35.464Z,0.25
2022-12-05T21:36:02.009Z,0.14
2022-12-05T21:38:28.578Z,0.19
2022-12-05T21:40:55.032Z,0.31
2022-12-05T21:43:21.472Z,0.23
2022-12-05T21:45:54.175Z,0.33
2022-12-05T21:48:21.264Z,0.42
2022-12-05T21:50:48.008Z,0.29
2022-12-05T21:53:14.600Z,0.25
2022-12-05T21:55:41.783Z,0.17
2022-12-05T21:58:08.275Z,0.20
2022-12-05T22:00:34.728Z,0.34
2022-12-05T22:03:01.221Z,0.26
2022-12-05T22:05:27.793Z,0.33
2022-12-05T22:07:54.289Z,0.19
2022-12-05T22:10:20.925Z,0.16
2022-12-05T22:12:47.552Z,0.09
2022-12-05T22:15:14.065Z,0.11
2022-12-05T22:17:40.529Z,0.29
2022-12-05T22:20:07.342Z,0.18
2022-12-05T22:22:35.280Z,0.09
2022-12-05T22:25:01.850Z,0.15
2022-12-05T22:27:29.500Z,0.31
2022-12-05T22:29:56.100Z,0.20
2022-12-05T22:32:22.574Z,0.08
2022-12-05T22:34:49.079Z,0.10
2022-12-05T22:37:15.548Z,0.11
2022-12-05T22:39:42.032Z,0.07
2022-12-05T22:42:08.499Z,0.08
2022-12-05T22:44:34.961Z,0.29
2022-12-05T22:47:01.474Z,0.17
2022-12-05T22:49:28.069Z,0.24
2022-12-05T22:51:54.526Z,0.10
2022-12-05T22:54:23.599Z,0.16
2022-12-05T22:56:52.365Z,0.12
2022-12-05T22:59:18.939Z,0.09
2022-12-05T23:01:45.508Z,0.24
2022-12-05T23:04:12.113Z,0.31
2022-12-05T23:06:38.741Z,0.24
2022-12-05T23:09:06.704Z,0.23
2022-12-05T23:11:33.178Z,0.13
2022-12-05T23:14:02.142Z,0.14
2022-12-05T23:16:32.306Z,0.11
2022-12-05T23:19:00.242Z,0.08
2022-12-05T23:21:31.773Z,0.11
2022-12-05T23:24:00.134Z,0.03
2022-12-05T23:26:29.318Z,0.04
2022-12-05T23:28:55.871Z,-0.01
2022-12-05T23:31:22.533Z,0.03
2022-12-05T23:33:51.488Z,0.13
2022-12-05T23:36:18.812Z,0.06
2022-12-05T23:38:45.344Z,0.16
2022-12-05T23:41:17.619Z,0.23
2022-12-05T23:43:44.435Z,0.13
2022-12-05T23:46:11.762Z,0.22
2022-12-05T23:48:38.315Z,0.09
2022-12-05T23:51:05.936Z,0.15
2022-12-05T23:53:33.816Z,0.13
2022-12-05T23:56:11.348Z,0.11
2022-12-05T23:58:38.015Z,0.03
